createdAt,value
2017-11-13T00:01:28.738Z,96102.80
2017-11-13T00:03:54.968Z,96111.09
2017-11-13T00:06:21.156Z,96107.98
2017-11-13T00:08:47.273Z,96106.37
2017-11-13T00:11:13.325Z,96106.18
2017-11-13T00:13:39.415Z,96102.12
2017-11-13T00:16:05.646Z,96102.12
2017-11-13T00:18:31.650Z,96099.23
2017-11-13T00:20:57.847Z,96108.08
2017-11-13T00:23:23.844Z,96120.25
2017-11-13T00:25:53.648Z,96121.21
2017-11-13T00:28:19.715Z,96125.02
2017-11-13T00:30:45.893Z,96131.39
2017-11-13T00:33:12.097Z,96133.14
2017-11-13T00:35:38.192Z,96131.51
2017-11-13T00:38:04.255Z,96137.70
2017-11-13T00:40:30.367Z,96143.06
2017-11-13T00:42:56.934Z,96148.23
2017-11-13T00:45:22.998Z,96150.70
2017-11-13T00:47:49.056Z,96157.24
2017-11-13T00:50:15.265Z,96159.34
2017-11-13T00:52:41.324Z,96156.05
2017-11-13T00:55:07.420Z,96158.80
2017-11-13T00:57:33.461Z,96155.88
2017-11-13T00:59:59.552Z,96160.39
2017-11-13T01:02:25.619Z,96161.05
2017-11-13T01:04:58.734Z,96166.95
2017-11-13T01:07:25.403Z,96164.34
2017-11-13T01:09:51.507Z,96166.77
2017-11-13T01:12:17.789Z,96166.16
2017-11-13T01:14:43.980Z,96167.36
2017-11-13T01:17:10.135Z,96170.36
2017-11-13T01:19:36.244Z,96178.28
2017-11-13T01:22:02.409Z,96184.95
2017-11-13T01:24:28.498Z,96181.87
2017-11-13T01:26:54.641Z,96188.29
2017-11-13T01:29:20.689Z,96174.50
2017-11-13T01:31:46.839Z,96170.29
2017-11-13T01:34:12.987Z,96174.45
2017-11-13T01:36:39.177Z,96174.20
2017-11-13T01:39:05.550Z,96167.06
2017-11-13T01:41:31.728Z,96173.55
2017-11-13T01:43:57.775Z,96167.47
2017-11-13T01:46:23.933Z,96169.55
2017-11-13T01:48:49.958Z,96171.69
2017-11-13T01:51:15.965Z,96167.98
2017-11-13T01:53:42.083Z,96169.24
2017-11-13T01:56:08.228Z,96175.55
2017-11-13T01:58:34.347Z,96183.73
2017-11-13T02:01:01.393Z,96179.88
2017-11-13T02:03:27.710Z,96183.95
2017-11-13T02:05:53.981Z,96193.89
2017-11-13T02:08:20.114Z,96190.89
2017-11-13T02:10:46.217Z,96196.18
2017-11-13T02:13:12.408Z,96198.83
2017-11-13T02:15:38.554Z,96201.64
2017-11-13T02:18:04.804Z,96198.03
2017-11-13T02:20:30.892Z,96199.78
2017-11-13T02:22:57.031Z,96201.57
2017-11-13T02:25:23.670Z,96203.67
2017-11-13T02:27:49.869Z,96202.14
2017-11-13T02:30:15.975Z,96202.36
2017-11-13T02:32:42.250Z,96204.73
2017-11-13T02:35:08.402Z,96214.09
2017-11-13T02:37:34.488Z,96218.67
2017-11-13T02:40:00.664Z,96216.74
2017-11-13T02:42:26.774Z,96222.46
2017-11-13T02:44:53.017Z,96221.32
2017-11-13T02:47:19.199Z,96221.11
2017-11-13T02:49:45.357Z,96219.55
2017-11-13T02:52:11.574Z,96225.02
2017-11-13T02:54:38.069Z,96231.77
2017-11-13T02:57:04.320Z,96234.45
2017-11-13T02:59:30.469Z,96239.31
2017-11-13T03:01:56.576Z,96245.53
2017-11-13T03:04:22.604Z,96253.83
2017-11-13T03:06:48.680Z,96250.21
2017-11-13T03:09:14.883Z,96250.10
2017-11-13T03:11:40.984Z,96256.11
2017-11-13T03:14:07.467Z,96257.68
2017-11-13T03:16:33.589Z,96263.64
2017-11-13T03:18:59.632Z,96270.01
2017-11-13T03:21:25.809Z,96266.39
2017-11-13T03:23:51.950Z,96261.28
2017-11-13T03:26:18.001Z,96267.36
2017-11-13T03:28:44.015Z,96262.86
2017-11-13T03:31:10.219Z,96262.20
2017-11-13T03:33:36.305Z,96276.44
2017-11-13T03:36:02.445Z,96276.75
2017-11-13T03:38:28.489Z,96276.69
2017-11-13T03:40:54.489Z,96286.44
2017-11-13T03:43:20.680Z,96286.58
2017-11-13T03:45:46.777Z,96280.85
2017-11-13T03:48:12.870Z,96283.57
2017-11-13T03:50:38.967Z,96284.15
2017-11-13T03:53:05.134Z,96288.30
2017-11-13T03:55:31.221Z,96298.20
2017-11-13T03:57:57.312Z,96300.92
2017-11-13T04:00:23.801Z,96307.65
2017-11-13T04:02:50.018Z,96315.66
2017-11-13T04:05:16.163Z,96316.98
2017-11-13T04:07:42.271Z,96321.48
2017-11-13T04:10:08.319Z,96320.09
2017-11-13T04:12:34.580Z,96324.38
2017-11-13T04:15:00.903Z,96327.38
2017-11-13T04:17:26.941Z,96329.92
2017-11-13T04:19:53.193Z,96337.90
2017-11-13T04:22:19.487Z,96342.80
2017-11-13T04:24:45.707Z,96335.03
2017-11-13T04:27:11.779Z,96328.56
2017-11-13T04:29:37.824Z,96341.05
2017-11-13T04:32:03.959Z,96341.86
2017-11-13T04:34:30.098Z,96339.65
2017-11-13T04:36:56.219Z,96347.95
2017-11-13T04:39:22.294Z,96357.27
2017-11-13T04:41:48.337Z,96364.53
2017-11-13T04:44:14.745Z,96375.73
2017-11-13T04:46:40.819Z,96378.16
2017-11-13T04:49:06.890Z,96378.84
2017-11-13T04:51:33.144Z,96370.19
2017-11-13T04:53:59.244Z,96374.88
2017-11-13T04:56:25.320Z,96372.16
2017-11-13T04:58:51.401Z,96381.41
2017-11-13T05:01:17.487Z,96381.55
2017-11-13T05:03:43.517Z,96383.42
2017-11-13T05:06:09.962Z,96391.22
2017-11-13T05:08:36.194Z,96392.54
2017-11-13T05:11:02.518Z,96386.59
2017-11-13T05:13:28.672Z,96389.03
2017-11-13T05:15:54.835Z,96385.38
2017-11-13T05:18:20.961Z,96394.75
2017-11-13T05:20:47.405Z,96395.36
2017-11-13T05:23:13.712Z,96398.47
2017-11-13T05:25:39.914Z,96408.19
2017-11-13T05:28:06.156Z,96402.61
2017-11-13T05:30:32.213Z,96403.04
2017-11-13T05:32:58.267Z,96405.16
2017-11-13T05:35:24.905Z,96407.30
2017-11-13T05:37:51.054Z,96413.81
2017-11-13T05:40:17.107Z,96416.20
2017-11-13T05:42:43.285Z,96423.50
2017-11-13T05:45:09.385Z,96424.76
2017-11-13T05:47:35.434Z,96422.55
2017-11-13T05:50:01.494Z,96427.01
2017-11-13T05:52:27.555Z,96434.45
2017-11-13T05:54:53.663Z,96434.09
2017-11-13T05:57:19.799Z,96446.00
2017-11-13T05:59:45.850Z,96446.06
2017-11-13T06:02:11.906Z,96442.99
2017-11-13T06:04:38.048Z,96451.83
2017-11-13T06:07:04.094Z,96461.98
2017-11-13T06:09:30.230Z,96454.83
2017-11-13T06:11:56.436Z,96467.53
2017-11-13T06:14:22.443Z,96475.00
2017-11-13T06:16:48.483Z,96467.17
2017-11-13T06:19:14.825Z,96473.53
2017-11-13T06:21:40.943Z,96470.20
2017-11-13T06:24:07.124Z,96473.95
2017-11-13T06:26:33.223Z,96477.95
2017-11-13T06:28:59.456Z,96479.37
2017-11-13T06:31:25.765Z,96492.61
2017-11-13T06:33:51.927Z,96496.47
2017-11-13T06:36:18.130Z,96498.22
2017-11-13T06:38:44.322Z,96502.98
2017-11-13T06:41:10.683Z,96503.45
2017-11-13T06:43:36.838Z,96510.28
2017-11-13T06:46:03.043Z,96510.15
2017-11-13T06:48:29.163Z,96516.23
2017-11-13T06:50:55.249Z,96520.56
2017-11-13T06:53:21.390Z,96519.45
2017-11-13T06:55:47.476Z,96526.69
2017-11-13T06:58:13.568Z,96529.16
2017-11-13T07:00:39.638Z,96539.51
2017-11-13T07:03:05.707Z,96541.09
2017-11-13T07:05:31.849Z,96542.60
2017-11-13T07:07:58.115Z,96540.64
2017-11-13T07:10:24.285Z,96540.03
2017-11-13T07:12:50.384Z,96545.59
2017-11-13T07:15:16.499Z,96557.75
2017-11-13T07:17:42.701Z,96553.21
2017-11-13T07:20:08.857Z,96552.97
2017-11-13T07:22:35.101Z,96557.09
2017-11-13T07:25:01.577Z,96561.42
2017-11-13T07:27:27.727Z,96563.00
2017-11-13T07:29:53.815Z,96563.61
2017-11-13T07:32:20.006Z,96574.69
2017-11-13T07:34:46.166Z,96569.89
2017-11-13T07:37:12.354Z,96572.16
2017-11-13T07:39:38.642Z,96570.77
2017-11-13T07:42:04.969Z,96575.85
2017-11-13T07:44:31.174Z,96573.34
2017-11-13T07:46:57.308Z,96568.95
2017-11-13T07:49:23.452Z,96577.22
2017-11-13T07:51:49.580Z,96587.04
2017-11-13T07:54:15.714Z,96591.52
2017-11-13T07:56:41.742Z,96593.13
2017-11-13T07:59:07.795Z,96589.11
2017-11-13T08:01:33.842Z,96590.62
2017-11-13T08:03:59.892Z,96597.78
2017-11-13T08:06:26.005Z,96596.17
2017-11-13T08:08:52.330Z,96601.83
2017-11-13T08:11:18.467Z,96600.47
2017-11-13T08:13:44.557Z,96600.86
2017-11-13T08:16:10.889Z,96604.53
2017-11-13T08:18:36.931Z,96601.17
2017-11-13T08:21:04.105Z,96594.42
2017-11-13T08:23:30.760Z,96598.71
2017-11-13T08:25:56.817Z,96597.09
2017-11-13T08:28:23.007Z,96593.34
2017-11-13T08:30:49.114Z,96591.05
2017-11-13T08:33:15.513Z,96599.42
2017-11-13T08:35:41.594Z,96601.09
2017-11-13T08:38:07.713Z,96606.34
2017-11-13T08:40:33.774Z,96597.72
2017-11-13T08:42:59.870Z,96601.69
2017-11-13T08:45:25.977Z,96606.61
2017-11-13T08:47:52.146Z,96598.72
2017-11-13T08:50:18.315Z,96602.61
2017-11-13T08:52:51.339Z,96601.41
2017-11-13T08:55:17.444Z,96606.17
2017-11-13T08:57:43.620Z,96601.67
2017-11-13T09:00:09.826Z,96604.42
2017-11-13T09:02:35.853Z,96606.72
2017-11-13T09:05:01.997Z,96607.02
2017-11-13T09:07:28.249Z,96607.86
2017-11-13T09:09:54.334Z,96615.09
2017-11-13T09:12:20.381Z,96613.84
2017-11-13T09:14:53.667Z,96623.98
2017-11-13T09:17:19.688Z,96629.77
2017-11-13T09:19:45.762Z,96641.23
2017-11-13T09:22:12.298Z,96645.76
2017-11-13T09:24:38.362Z,96651.52
2017-11-13T09:27:04.481Z,96642.68
2017-11-13T09:29:30.655Z,96643.69
2017-11-13T09:31:56.765Z,96646.39
2017-11-13T09:34:22.965Z,96639.25
2017-11-13T09:36:49.043Z,96652.86
2017-11-13T09:39:15.147Z,96656.94
2017-11-13T09:41:41.300Z,96663.99
2017-11-13T09:44:07.426Z,96674.26
2017-11-13T09:46:33.630Z,96676.40
2017-11-13T09:48:59.707Z,96676.86
2017-11-13T09:51:25.792Z,96670.98
2017-11-13T09:53:52.030Z,96672.02
2017-11-13T09:56:18.316Z,96669.97
2017-11-13T09:58:44.600Z,96676.48
2017-11-13T10:01:10.740Z,96685.94
2017-11-13T10:03:36.859Z,96682.94
2017-11-13T10:06:03.125Z,96688.55
2017-11-13T10:08:29.282Z,96685.24
2017-11-13T10:10:55.575Z,96684.95
2017-11-13T10:13:21.914Z,96683.62
2017-11-13T10:15:48.102Z,96682.46
2017-11-13T10:18:14.240Z,96684.34
2017-11-13T10:20:40.386Z,96674.80
2017-11-13T10:23:06.535Z,96681.96
2017-11-13T10:25:32.764Z,96678.39
2017-11-13T10:27:58.894Z,96679.80
2017-11-13T10:30:25.437Z,96681.72
2017-11-13T10:32:51.636Z,96682.02
2017-11-13T10:35:17.772Z,96691.32
2017-11-13T10:37:43.821Z,96689.55
2017-11-13T10:40:09.858Z,96696.20
2017-11-13T10:42:36.420Z,96693.02
2017-11-13T10:45:02.588Z,96698.71
2017-11-13T10:47:28.762Z,96698.98
2017-11-13T10:49:55.297Z,96695.41
2017-11-13T10:52:21.413Z,96699.05
2017-11-13T10:54:47.564Z,96705.11
2017-11-13T10:57:13.931Z,96705.56
2017-11-13T10:59:40.164Z,96700.33
2017-11-13T11:02:06.306Z,96701.52
2017-11-13T11:04:32.620Z,96705.87
2017-11-13T11:06:58.858Z,96703.02
2017-11-13T11:09:24.950Z,96695.53
2017-11-13T11:11:51.491Z,96696.20
2017-11-13T11:14:18.462Z,96694.05
2017-11-13T11:16:50.553Z,96701.83
2017-11-13T11:19:22.682Z,96710.36
2017-11-13T11:24:55.973Z,96727.16
2017-11-13T11:27:22.110Z,96725.27
2017-11-13T11:29:59.247Z,96725.47
2017-11-13T11:32:36.234Z,96730.47
2017-11-13T11:35:03.294Z,96726.94
2017-11-13T11:37:33.568Z,96730.02
2017-11-13T11:39:59.914Z,96730.50
2017-11-13T11:42:26.106Z,96727.62
2017-11-13T11:44:53.056Z,96731.89
2017-11-13T11:47:20.337Z,96729.09
2017-11-13T11:49:48.546Z,96731.56
2017-11-13T11:52:14.709Z,96733.38
2017-11-13T11:54:46.755Z,96733.10
2017-11-13T11:57:13.817Z,96738.92
2017-11-13T11:59:39.903Z,96740.18
2017-11-13T12:02:06.079Z,96739.18
2017-11-13T12:04:32.387Z,96755.06
2017-11-13T12:06:58.533Z,96763.31
2017-11-13T12:09:24.881Z,96757.61
2017-11-13T12:11:51.273Z,96764.07
2017-11-13T12:14:17.395Z,96756.94
2017-11-13T12:16:43.470Z,96764.56
2017-11-13T12:19:09.749Z,96770.67
2017-11-13T12:21:35.969Z,96762.67
2017-11-13T12:24:02.225Z,96769.54
2017-11-13T12:26:28.351Z,96761.96
2017-11-13T12:28:54.469Z,96755.95
2017-11-13T12:31:20.625Z,96763.00
2017-11-13T12:33:47.202Z,96764.53
2017-11-13T12:36:13.489Z,96764.69
2017-11-13T12:38:39.701Z,96767.91
2017-11-13T12:41:05.829Z,96770.42
2017-11-13T12:43:31.991Z,96767.30
2017-11-13T12:45:58.185Z,96775.34
2017-11-13T12:48:24.372Z,96774.09
2017-11-13T12:50:50.865Z,96777.17
2017-11-13T12:53:17.191Z,96780.47
2017-11-13T12:55:43.323Z,96779.02
2017-11-13T12:58:09.547Z,96773.53
2017-11-13T13:00:35.746Z,96776.78
2017-11-13T13:03:02.568Z,96774.92
2017-11-13T13:05:28.595Z,96775.37
2017-11-13T13:07:54.706Z,96770.75
2017-11-13T13:10:21.017Z,96780.79
2017-11-13T13:12:47.106Z,96784.80
2017-11-13T13:15:13.218Z,96782.32
2017-11-13T13:17:40.582Z,96785.32
2017-11-13T13:20:06.766Z,96793.36
2017-11-13T13:22:33.095Z,96791.60
2017-11-13T13:25:00.469Z,96790.91
2017-11-13T13:27:26.686Z,96789.53
2017-11-13T13:29:52.731Z,96795.27
2017-11-13T13:32:19.651Z,96798.39
2017-11-13T13:34:45.710Z,96798.57
2017-11-13T13:37:11.800Z,96797.23
2017-11-13T13:39:38.088Z,96798.67
2017-11-13T13:42:16.394Z,96793.25
2017-11-13T13:44:42.514Z,96806.91
2017-11-13T13:47:08.876Z,96803.11
2017-11-13T13:49:34.954Z,96805.67
2017-11-13T13:52:01.068Z,96820.59
2017-11-13T13:54:27.211Z,96822.59
2017-11-13T13:56:53.466Z,96830.67
2017-11-13T13:59:20.026Z,96830.91
2017-11-13T14:01:46.100Z,96830.62
2017-11-13T14:04:12.314Z,96826.44
2017-11-13T14:06:39.090Z,96832.56
2017-11-13T14:09:05.511Z,96834.64
2017-11-13T14:11:32.834Z,96841.67
2017-11-13T14:13:59.190Z,96846.77
2017-11-13T14:16:25.359Z,96853.44
2017-11-13T14:18:51.579Z,96861.97
2017-11-13T14:21:18.090Z,96862.90
2017-11-13T14:23:44.403Z,96864.88
2017-11-13T14:26:10.455Z,96865.31
2017-11-13T14:28:36.636Z,96857.17
2017-11-13T14:31:02.755Z,96868.20
2017-11-13T14:33:29.201Z,96869.27
2017-11-13T14:35:55.421Z,96871.47
2017-11-13T14:38:21.545Z,96869.50
2017-11-13T14:40:54.436Z,96878.16
2017-11-13T14:43:20.567Z,96871.81
2017-11-13T14:45:46.765Z,96876.68
2017-11-13T14:48:12.858Z,96881.57
2017-11-13T14:50:39.291Z,96887.88
2017-11-13T14:53:05.753Z,96893.66
2017-11-13T14:55:31.895Z,96902.25
2017-11-13T14:57:58.149Z,96915.40
2017-11-13T15:00:24.267Z,96919.98
2017-11-13T15:02:52.619Z,96925.08
2017-11-13T15:05:18.901Z,96926.79
2017-11-13T15:07:45.076Z,96926.39
2017-11-13T15:12:43.339Z,96943.03
2017-11-13T15:15:09.816Z,96944.03
2017-11-13T15:17:35.966Z,96950.13
2017-11-13T15:20:02.293Z,96957.81
2017-11-13T15:22:28.601Z,96952.08
2017-11-13T15:24:57.912Z,96955.15
2017-11-13T15:27:24.208Z,96952.25
2017-11-13T15:29:50.379Z,96950.62
2017-11-13T15:32:16.584Z,96956.34
2017-11-13T15:34:42.836Z,96955.09
2017-11-13T15:37:11.984Z,96963.48
2017-11-13T15:39:38.943Z,96965.28
2017-11-13T15:42:05.900Z,96969.17
2017-11-13T15:44:31.975Z,96969.89
2017-11-13T15:46:58.288Z,96970.76
2017-11-13T15:49:24.500Z,96964.44
2017-11-13T15:51:50.559Z,96971.01
2017-11-13T15:54:16.941Z,96971.77
2017-11-13T15:56:43.453Z,96976.11
2017-11-13T15:59:09.843Z,96987.53
2017-11-13T16:01:36.597Z,96990.11
2017-11-13T16:04:03.238Z,96994.84
2017-11-13T16:06:30.260Z,96994.73
2017-11-13T16:08:57.485Z,97002.05
2017-11-13T16:11:25.056Z,97005.42
2017-11-13T16:13:51.548Z,97004.87
2017-11-13T16:16:18.124Z,97006.59
2017-11-13T16:18:44.748Z,97008.55
2017-11-13T16:21:11.296Z,97014.48
2017-11-13T16:23:37.803Z,97015.16
2017-11-13T16:26:04.410Z,97018.98
2017-11-13T16:28:30.593Z,97022.09
2017-11-13T16:30:58.772Z,97017.59
2017-11-13T16:33:25.130Z,97034.39
2017-11-13T16:35:51.194Z,97027.37
2017-11-13T16:38:17.312Z,97030.63
2017-11-13T16:40:43.569Z,97036.84
2017-11-13T16:43:09.647Z,97042.98
2017-11-13T16:45:35.815Z,97055.29
2017-11-13T16:48:02.341Z,97052.08
2017-11-13T16:50:28.591Z,97057.67
2017-11-13T16:52:54.609Z,97070.38
2017-11-13T16:55:20.861Z,97063.65
2017-11-13T16:57:46.975Z,97072.83
2017-11-13T17:00:13.063Z,97078.49
2017-11-13T17:02:39.616Z,97085.64
2017-11-13T17:05:05.713Z,97086.13
2017-11-13T17:07:31.801Z,97092.98
2017-11-13T17:09:58.019Z,97094.26
2017-11-13T17:12:24.087Z,97092.56
2017-11-13T17:14:50.299Z,97090.84
2017-11-13T17:17:16.869Z,97102.95
2017-11-13T17:19:42.932Z,97104.84
2017-11-13T17:22:09.019Z,97119.25
2017-11-13T17:24:35.447Z,97126.22
2017-11-13T17:27:01.528Z,97116.66
2017-11-13T17:29:27.555Z,97123.55
2017-11-13T17:31:53.715Z,97123.48
2017-11-13T17:34:19.815Z,97127.89
2017-11-13T17:36:46.522Z,97134.23
2017-11-13T17:39:17.280Z,97133.98
2017-11-13T17:41:43.506Z,97136.81
2017-11-13T17:44:12.960Z,97137.21
2017-11-13T17:46:43.087Z,97139.72
2017-11-13T17:49:09.652Z,97140.08
2017-11-13T17:51:36.162Z,97144.18
2017-11-13T17:54:02.791Z,97149.38
2017-11-13T17:56:29.662Z,97145.19
2017-11-13T17:58:56.109Z,97140.51
2017-11-13T18:01:22.687Z,97148.98
2017-11-13T18:03:50.123Z,97149.12
2017-11-13T18:06:16.883Z,97153.83
2017-11-13T18:08:44.559Z,97160.34
2017-11-13T18:11:10.897Z,97155.42
2017-11-13T18:13:37.478Z,97165.41
2017-11-13T18:16:05.123Z,97159.52
2017-11-13T18:18:32.432Z,97162.56
2017-11-13T18:21:00.854Z,97158.11
2017-11-13T18:23:27.288Z,97158.84
2017-11-13T18:25:54.946Z,97173.87
2017-11-13T18:30:52.938Z,97179.76
2017-11-13T18:33:19.478Z,97179.18
2017-11-13T18:35:48.903Z,97178.52
2017-11-13T18:38:15.815Z,97177.00
2017-11-13T18:40:42.383Z,97183.02
2017-11-13T18:43:10.025Z,97177.16
2017-11-13T18:45:37.376Z,97171.95
2017-11-13T18:48:04.078Z,97168.89
2017-11-13T18:50:30.567Z,97171.56
2017-11-13T18:52:57.138Z,97169.66
2017-11-13T18:55:23.599Z,97175.22
2017-11-13T18:57:50.860Z,97180.48
2017-11-13T19:00:17.459Z,97184.03
2017-11-13T19:02:52.809Z,97183.13
2017-11-13T19:05:21.596Z,97186.97
2017-11-13T19:07:48.840Z,97186.86
2017-11-13T19:10:15.221Z,97196.59
2017-11-13T19:12:41.726Z,97201.58
2017-11-13T19:15:08.294Z,97193.52
2017-11-13T19:17:34.828Z,97193.83
2017-11-13T19:20:01.350Z,97193.30
2017-11-13T19:22:28.038Z,97197.64
2017-11-13T19:24:57.078Z,97199.41
2017-11-13T19:27:25.505Z,97206.09
2017-11-13T19:29:52.762Z,97199.88
2017-11-13T19:32:20.218Z,97204.91
2017-11-13T19:34:47.217Z,97213.34
2017-11-13T19:37:13.756Z,97220.63
2017-11-13T19:39:40.063Z,97225.89
2017-11-13T19:42:06.696Z,97230.81
2017-11-13T19:44:32.929Z,97232.75
2017-11-13T19:47:00.488Z,97244.11
2017-11-13T19:49:27.769Z,97241.02
2017-11-13T19:51:55.237Z,97257.27
2017-11-13T19:54:22.969Z,97253.66
2017-11-13T19:56:59.856Z,97260.56
2017-11-13T19:59:26.402Z,97252.34
2017-11-13T20:01:53.148Z,97255.24
2017-11-13T20:04:19.431Z,97251.43
2017-11-13T20:06:45.966Z,97257.37
2017-11-13T20:09:12.559Z,97266.91
2017-11-13T20:11:39.450Z,97264.91
2017-11-13T20:14:05.944Z,97270.36
2017-11-13T20:16:32.336Z,97279.03
2017-11-13T20:19:05.685Z,97283.95
2017-11-13T20:21:32.277Z,97292.34
2017-11-13T20:23:58.893Z,97293.78
2017-11-13T20:26:25.316Z,97292.06
2017-11-13T20:28:51.734Z,97299.64
2017-11-13T20:31:18.341Z,97289.22
2017-11-13T20:33:44.643Z,97291.31
2017-11-13T20:36:10.815Z,97290.05
2017-11-13T20:38:37.099Z,97292.23
2017-11-13T20:41:03.622Z,97292.98
2017-11-13T20:43:29.978Z,97292.83
2017-11-13T20:45:56.417Z,97282.81
2017-11-13T20:48:23.254Z,97291.48
2017-11-13T20:50:49.662Z,97292.50
2017-11-13T20:53:16.303Z,97294.56
2017-11-13T20:55:42.924Z,97296.23
2017-11-13T20:58:09.276Z,97288.63
2017-11-13T21:00:35.598Z,97295.92
2017-11-13T21:03:02.323Z,97297.97
2017-11-13T21:05:28.614Z,97305.33
2017-11-13T21:07:55.155Z,97301.72
2017-11-13T21:10:21.636Z,97299.59
2017-11-13T21:12:47.996Z,97309.80
2017-11-13T21:15:14.294Z,97307.77
2017-11-13T21:17:40.653Z,97320.28
2017-11-13T21:20:07.106Z,97318.18
2017-11-13T21:22:33.403Z,97318.91
2017-11-13T21:24:59.971Z,97322.70
2017-11-13T21:27:26.369Z,97321.67
2017-11-13T21:29:52.771Z,97319.27
2017-11-13T21:32:19.380Z,97332.20
2017-11-13T21:34:45.747Z,97323.02
2017-11-13T21:37:12.402Z,97326.41
2017-11-13T21:39:40.295Z,97320.16
2017-11-13T21:42:06.649Z,97321.91
2017-11-13T21:44:33.448Z,97320.56
2017-11-13T21:46:59.987Z,97329.87
2017-11-13T21:49:28.497Z,97323.24
2017-11-13T21:51:54.787Z,97326.38
2017-11-13T21:54:21.249Z,97316.19
2017-11-13T21:56:47.699Z,97316.19
2017-11-13T21:59:14.215Z,97317.57
2017-11-13T22:01:40.741Z,97326.38
2017-11-13T22:04:09.044Z,97329.87
2017-11-13T22:06:35.418Z,97321.55
2017-11-13T22:09:01.750Z,97318.46
2017-11-13T22:11:28.181Z,97322.80
2017-11-13T22:13:54.747Z,97326.41
2017-11-13T22:16:21.182Z,97328.11
2017-11-13T22:18:47.865Z,97330.36
2017-11-13T22:21:14.201Z,97340.03
2017-11-13T22:23:41.034Z,97345.34
2017-11-13T22:26:07.587Z,97343.12
2017-11-13T22:28:34.228Z,97345.53
2017-11-13T22:31:00.752Z,97356.50
2017-11-13T22:33:27.095Z,97363.13
2017-11-13T22:35:53.578Z,97352.16
2017-11-13T22:38:20.128Z,97343.92
2017-11-13T22:40:46.418Z,97341.42
2017-11-13T22:43:12.938Z,97348.72
2017-11-13T22:45:39.497Z,97350.13
2017-11-13T22:48:06.085Z,97347.60
2017-11-13T22:50:32.071Z,97345.75
2017-11-13T22:52:58.352Z,97346.27
2017-11-13T22:55:24.359Z,97347.63
2017-11-13T22:57:50.460Z,97346.83
2017-11-13T23:00:17.013Z,97345.64
2017-11-13T23:02:43.118Z,97349.19
2017-11-13T23:05:09.147Z,97340.44
2017-11-13T23:07:35.422Z,97344.96
2017-11-13T23:10:01.494Z,97352.11
2017-11-13T23:12:27.550Z,97348.16
2017-11-13T23:14:53.835Z,97355.22
2017-11-13T23:17:19.878Z,97356.33
2017-11-13T23:19:46.025Z,97359.91
2017-11-13T23:22:12.148Z,97362.21
2017-11-13T23:24:38.337Z,97359.56
2017-11-13T23:27:04.413Z,97359.40
2017-11-13T23:29:30.465Z,97353.24
2017-11-13T23:31:56.544Z,97359.52
2017-11-13T23:34:22.659Z,97357.83
2017-11-13T23:36:48.806Z,97353.05
2017-11-13T23:39:15.162Z,97347.84
2017-11-13T23:41:41.267Z,97349.73
2017-11-13T23:44:07.527Z,97347.91
2017-11-13T23:46:33.812Z,97344.05
2017-11-13T23:48:59.927Z,97347.09
2017-11-13T23:51:26.076Z,97351.27
2017-11-13T23:53:52.210Z,97353.45
2017-11-13T23:56:18.272Z,97354.84
2017-11-13T23:58:44.459Z,97351.56
